Old Orchard Beach, Maine
Current Conditions -  °F | °C
As of 6:51 AM on Monday 22 Dec 2014 (Local Time) from KPWM Reporting Station
Broken Clouds Broken Clouds  
Wind Chill: 31°   Ceiling: 5500
Heat Index: 31°   Visibility: 10mi
Dew Point: 25°   Wind: 3mph
Humidity: 79%   Direction: 10°N
Pressure: 30.42"   Gusts: NA
Location:  43.52°N, 70.38°W
Report Text: KPWM 221151Z 01003KT 10SM BKN055 M01/M04 A3042 RMK AO2 SLP302 T10061039 11006 21006 53012
Loading
Personal Weather Stations






























Interactive Weather Map New forecast layout! Learn more

10-Day Weather Forecast

Advertisements
Track Severe Weather on mobile